createdAt,value
2023-05-01T00:00:58.365Z,1.77
2023-05-01T00:03:25.470Z,1.73
2023-05-01T00:05:52.432Z,1.70
2023-05-01T00:08:19.277Z,1.66
2023-05-01T00:10:47.000Z,1.62
2023-05-01T00:13:14.066Z,1.58
2023-05-01T00:15:42.392Z,1.55
2023-05-01T00:18:09.370Z,1.52
2023-05-01T00:20:36.232Z,1.49
2023-05-01T00:23:03.190Z,1.46
2023-05-01T00:25:30.690Z,1.44
2023-05-01T00:27:58.736Z,1.41
2023-05-01T00:30:25.875Z,1.37
2023-05-01T00:32:52.791Z,1.35
2023-05-01T00:35:19.860Z,1.31
2023-05-01T00:37:47.038Z,1.29
2023-05-01T00:40:13.935Z,1.27
2023-05-01T00:42:40.955Z,1.24
2023-05-01T00:45:08.425Z,1.22
2023-05-01T00:47:38.920Z,1.19
2023-05-01T00:50:06.671Z,1.16
2023-05-01T00:52:33.912Z,1.13
2023-05-01T00:55:00.938Z,1.09
2023-05-01T00:57:27.941Z,1.06
2023-05-01T00:59:55.113Z,1.03
2023-05-01T01:02:22.631Z,0.99
2023-05-01T01:04:49.940Z,0.98
2023-05-01T01:07:37.148Z,0.96
2023-05-01T01:10:18.521Z,0.93
2023-05-01T01:13:11.586Z,0.90
2023-05-01T01:15:51.215Z,0.87
2023-05-01T01:18:42.670Z,0.85
2023-05-01T01:21:20.613Z,0.82
2023-05-01T01:24:01.996Z,0.79
2023-05-01T01:26:45.722Z,0.76
2023-05-01T01:29:21.516Z,0.73
2023-05-01T01:32:02.286Z,0.69
2023-05-01T01:34:39.754Z,0.66
2023-05-01T01:37:19.909Z,0.63
2023-05-01T01:39:55.491Z,0.61
2023-05-01T01:42:29.577Z,0.59
2023-05-01T01:45:03.081Z,0.56
2023-05-01T01:47:33.336Z,0.53
2023-05-01T01:50:04.509Z,0.50
2023-05-01T01:52:33.256Z,0.47
2023-05-01T01:55:07.332Z,0.45
2023-05-01T01:57:36.783Z,0.43
2023-05-01T02:00:09.087Z,0.40
2023-05-01T02:02:39.133Z,0.36
2023-05-01T02:05:07.750Z,0.34
2023-05-01T02:07:37.904Z,0.33
2023-05-01T02:10:06.088Z,0.31
2023-05-01T02:12:34.405Z,0.29
2023-05-01T02:15:02.676Z,0.27
2023-05-01T02:17:30.836Z,0.25
2023-05-01T02:19:57.932Z,0.23
2023-05-01T02:22:26.893Z,0.21
2023-05-01T02:24:56.762Z,0.18
2023-05-01T02:27:25.084Z,0.15
2023-05-01T02:29:53.743Z,0.13
2023-05-01T02:32:20.790Z,0.10
2023-05-01T02:34:47.662Z,0.08
2023-05-01T02:37:14.808Z,0.08
2023-05-01T02:39:41.960Z,0.07
2023-05-01T02:42:10.144Z,0.07
2023-05-01T02:44:47.371Z,0.07
2023-05-01T02:47:20.186Z,0.07
2023-05-01T02:49:49.010Z,0.08
2023-05-01T02:52:20.828Z,0.07
2023-05-01T02:54:48.073Z,0.06
2023-05-01T02:57:17.871Z,0.05
2023-05-01T02:59:44.708Z,0.05
2023-05-01T03:02:11.705Z,0.04
2023-05-01T03:04:38.685Z,0.04
2023-05-01T03:07:05.638Z,0.03
2023-05-01T03:09:32.522Z,0.02
2023-05-01T03:11:59.383Z,0.02
2023-05-01T03:14:27.832Z,0.02
2023-05-01T03:16:56.028Z,0.02
2023-05-01T03:19:22.964Z,0.02
2023-05-01T03:21:50.152Z,0.01
2023-05-01T03:24:17.139Z,0.01
2023-05-01T03:26:44.072Z,0.01
2023-05-01T03:29:13.433Z,0.01
2023-05-01T03:31:40.409Z,0.00
2023-05-01T03:34:07.550Z,0.02
2023-05-01T03:36:34.563Z,0.04
2023-05-01T03:39:01.458Z,0.05
2023-05-01T03:41:28.434Z,0.09
2023-05-01T03:43:55.308Z,0.12
2023-05-01T03:46:45.156Z,0.16
2023-05-01T03:49:12.773Z,0.21
2023-05-01T03:51:39.562Z,0.27
2023-05-01T03:54:06.519Z,0.32
2023-05-01T03:56:35.896Z,0.37
2023-05-01T03:59:03.129Z,0.43
2023-05-01T04:01:30.099Z,0.48
2023-05-01T04:03:57.003Z,0.55
2023-05-01T04:06:24.063Z,0.63
2023-05-01T04:08:50.915Z,0.74
2023-05-01T04:11:17.816Z,0.88
2023-05-01T04:13:44.612Z,1.05
2023-05-01T04:16:11.422Z,1.26
2023-05-01T04:18:38.366Z,1.50
2023-05-01T04:21:05.296Z,1.78
2023-05-01T04:23:32.175Z,2.07
2023-05-01T04:25:59.039Z,2.35
2023-05-01T04:28:26.584Z,2.65
2023-05-01T04:30:53.554Z,2.95
2023-05-01T04:33:20.451Z,3.27
2023-05-01T04:35:47.289Z,3.57
2023-05-01T04:38:14.119Z,3.88
2023-05-01T04:40:41.196Z,4.19
2023-05-01T04:43:07.964Z,4.50
2023-05-01T04:45:34.905Z,4.80
2023-05-01T04:48:01.820Z,5.14
2023-05-01T04:50:28.780Z,5.47
2023-05-01T04:52:55.610Z,5.81
2023-05-01T04:55:22.984Z,6.14
2023-05-01T04:57:49.823Z,6.52
2023-05-01T05:00:19.124Z,6.90
2023-05-01T05:02:46.773Z,7.28
2023-05-01T05:05:13.885Z,7.66
2023-05-01T05:07:41.722Z,8.05
2023-05-01T05:10:08.761Z,8.45
2023-05-01T05:12:35.596Z,8.78
2023-05-01T05:15:02.452Z,9.06
2023-05-01T05:17:29.320Z,9.35
2023-05-01T05:19:56.531Z,9.63
2023-05-01T05:22:24.111Z,9.92
2023-05-01T05:25:04.225Z,10.21
2023-05-01T05:27:36.720Z,10.65
2023-05-01T05:30:08.165Z,11.08
2023-05-01T05:32:35.077Z,11.45
2023-05-01T05:35:02.229Z,11.77
2023-05-01T05:37:29.097Z,12.09
2023-05-01T05:39:56.357Z,12.32
2023-05-01T05:42:23.625Z,12.52
2023-05-01T05:44:50.531Z,12.71
2023-05-01T05:47:17.409Z,12.91
2023-05-01T05:49:44.320Z,13.21
2023-05-01T05:52:11.216Z,13.87
2023-05-01T05:54:38.022Z,14.90
2023-05-01T05:57:04.846Z,16.35
2023-05-01T05:59:31.999Z,18.38
2023-05-01T06:01:59.471Z,20.31
2023-05-01T06:04:26.237Z,22.09
2023-05-01T06:07:02.916Z,23.19
2023-05-01T06:09:42.088Z,22.73
2023-05-01T06:12:45.133Z,21.56
2023-05-01T06:15:17.115Z,20.18
2023-05-01T06:17:44.274Z,19.12
2023-05-01T06:20:11.724Z,18.18
2023-05-01T06:22:38.577Z,17.38
2023-05-01T06:25:07.188Z,16.70
2023-05-01T06:27:34.013Z,16.16
2023-05-01T06:30:01.104Z,15.74
2023-05-01T06:32:28.053Z,15.38
2023-05-01T06:34:54.928Z,15.04
2023-05-01T06:37:21.777Z,14.79
2023-05-01T06:39:48.838Z,14.58
2023-05-01T06:42:17.052Z,14.46
2023-05-01T06:44:44.401Z,14.41
2023-05-01T06:47:11.429Z,14.44
2023-05-01T06:49:38.571Z,14.55
2023-05-01T06:52:05.440Z,14.63
2023-05-01T06:54:32.385Z,14.69
2023-05-01T06:56:59.190Z,14.77
2023-05-01T06:59:26.025Z,14.90
2023-05-01T07:01:53.799Z,15.04
2023-05-01T07:04:20.660Z,15.15
2023-05-01T07:06:47.712Z,15.21
2023-05-01T07:09:14.666Z,15.21
2023-05-01T07:11:42.882Z,15.24
2023-05-01T07:14:09.941Z,15.21
2023-05-01T07:16:36.815Z,15.10
2023-05-01T07:19:04.209Z,15.03
2023-05-01T07:21:32.544Z,15.03
2023-05-01T07:23:59.932Z,14.98
2023-05-01T07:26:27.633Z,14.96
2023-05-01T07:28:54.705Z,15.01
2023-05-01T07:31:22.874Z,14.95
2023-05-01T07:33:50.930Z,14.82
2023-05-01T07:36:20.534Z,14.73
2023-05-01T07:38:48.189Z,14.68
2023-05-01T07:41:15.044Z,14.70
2023-05-01T07:43:41.882Z,14.78
2023-05-01T07:46:08.765Z,14.88
2023-05-01T07:48:50.050Z,14.90
2023-05-01T07:52:14.322Z,14.84
2023-05-01T07:54:42.541Z,14.76
2023-05-01T08:01:08.197Z,14.67
2023-05-01T08:03:35.563Z,14.64
2023-05-01T08:06:23.164Z,14.61
2023-05-01T08:08:50.107Z,14.55
2023-05-01T08:11:17.351Z,14.56
2023-05-01T08:13:44.093Z,14.51
2023-05-01T08:16:11.053Z,14.49
2023-05-01T08:18:38.002Z,14.46
2023-05-01T08:21:04.896Z,14.43
2023-05-01T08:23:31.965Z,14.44
2023-05-01T08:25:58.935Z,14.45
2023-05-01T08:28:25.809Z,14.44
2023-05-01T08:30:52.770Z,14.51
2023-05-01T08:33:19.684Z,14.61
2023-05-01T08:35:46.490Z,14.65
2023-05-01T08:38:13.496Z,14.67
2023-05-01T08:40:44.472Z,14.70
2023-05-01T08:43:13.502Z,14.80
2023-05-01T08:45:42.674Z,14.85
2023-05-01T08:48:10.990Z,14.83
2023-05-01T08:50:39.742Z,14.76
2023-05-01T08:53:06.930Z,14.66
2023-05-01T08:55:36.688Z,14.63
2023-05-01T08:58:05.929Z,14.63
2023-05-01T09:00:34.557Z,14.62
2023-05-01T09:03:05.652Z,14.64
2023-05-01T09:05:33.736Z,14.68
2023-05-01T09:08:01.477Z,14.72
2023-05-01T09:10:31.763Z,14.73
2023-05-01T09:13:11.356Z,14.78
2023-05-01T09:15:39.058Z,14.80
2023-05-01T09:18:06.211Z,14.79
2023-05-01T09:20:37.320Z,14.77
2023-05-01T09:23:04.384Z,14.74
2023-05-01T09:25:31.602Z,14.72
2023-05-01T09:27:58.519Z,14.68
2023-05-01T09:30:33.219Z,14.67
2023-05-01T09:33:30.009Z,14.72
2023-05-01T09:39:23.998Z,14.71
2023-05-01T09:41:55.755Z,14.68
2023-05-01T09:44:22.912Z,14.65
2023-05-01T09:46:50.305Z,14.67
2023-05-01T09:49:17.766Z,14.70
2023-05-01T09:51:44.945Z,14.72
2023-05-01T09:55:10.181Z,14.72
2023-05-01T09:57:40.313Z,14.71
2023-05-01T10:00:08.837Z,14.76
2023-05-01T10:07:05.069Z,14.80
2023-05-01T10:17:55.045Z,14.79
2023-05-01T10:20:55.773Z,14.77
2023-05-01T10:24:42.892Z,14.74
2023-05-01T10:31:23.801Z,14.74
2023-05-01T10:34:03.170Z,14.75
2023-05-01T10:36:39.342Z,14.79
2023-05-01T10:39:07.306Z,14.84
2023-05-01T10:42:05.008Z,14.88
2023-05-01T10:45:08.899Z,14.92
2023-05-01T10:47:35.911Z,14.96
2023-05-01T10:50:09.788Z,15.00
2023-05-01T10:53:12.058Z,15.04
2023-05-01T10:55:40.207Z,15.11
2023-05-01T10:58:07.032Z,15.18
2023-05-01T11:00:34.474Z,15.21
2023-05-01T11:03:24.599Z,15.22
2023-05-01T11:06:01.082Z,15.27
2023-05-01T11:08:39.054Z,15.32
2023-05-01T11:11:19.704Z,15.37
2023-05-01T11:14:01.711Z,15.40
2023-05-01T11:16:41.838Z,15.44
2023-05-01T11:19:10.020Z,15.49
2023-05-01T11:21:39.594Z,15.52
2023-05-01T11:24:07.121Z,15.55
2023-05-01T11:26:38.451Z,15.59
2023-05-01T11:29:06.322Z,15.61
2023-05-01T11:31:33.639Z,15.66
2023-05-01T11:34:01.120Z,15.68
2023-05-01T11:36:29.362Z,15.72
2023-05-01T11:39:00.113Z,15.77
2023-05-01T11:41:27.710Z,15.82
2023-05-01T11:43:57.827Z,15.88
2023-05-01T11:46:28.407Z,15.91
2023-05-01T11:49:00.158Z,15.95
2023-05-01T11:51:28.320Z,16.00
2023-05-01T11:54:06.176Z,16.05
2023-05-01T11:56:34.646Z,16.09
2023-05-01T11:59:13.018Z,16.12
2023-05-01T12:01:42.110Z,16.17
2023-05-01T12:04:09.461Z,16.23
2023-05-01T12:06:45.864Z,16.24
2023-05-01T12:09:27.151Z,16.24
2023-05-01T12:11:54.605Z,16.26
2023-05-01T12:14:22.370Z,16.28
2023-05-01T12:16:50.275Z,16.30
2023-05-01T12:19:18.334Z,16.30
2023-05-01T12:21:45.184Z,16.32
2023-05-01T12:24:18.833Z,16.37
2023-05-01T12:26:46.597Z,16.43
2023-05-01T12:29:13.870Z,16.46
2023-05-01T12:31:49.312Z,16.49
2023-05-01T12:34:16.538Z,16.52
2023-05-01T12:36:53.548Z,16.56
2023-05-01T12:39:21.112Z,16.56
2023-05-01T12:41:51.987Z,16.56
2023-05-01T12:44:22.588Z,16.63
2023-05-01T12:46:56.550Z,16.68
2023-05-01T13:03:19.017Z,17.34
2023-05-01T13:06:25.432Z,17.41
2023-05-01T13:09:36.723Z,17.32
2023-05-01T13:12:49.135Z,17.23
2023-05-01T13:16:08.567Z,17.14
2023-05-01T13:19:19.549Z,17.04
2023-05-01T13:22:31.727Z,16.97
2023-05-01T13:25:43.194Z,16.93
2023-05-01T13:28:56.046Z,16.93
2023-05-01T13:32:22.612Z,16.93
2023-05-01T13:35:50.746Z,16.95
2023-05-01T13:39:05.547Z,16.97
2023-05-01T13:42:10.775Z,16.97
2023-05-01T13:45:44.178Z,16.98
2023-05-01T13:49:11.897Z,16.96
2023-05-01T13:52:25.008Z,16.97
2023-05-01T13:55:37.875Z,17.01
2023-05-01T13:59:05.579Z,17.04
2023-05-01T14:02:17.562Z,17.07
2023-05-01T14:05:37.705Z,17.12
2023-05-01T14:08:57.460Z,17.15
2023-05-01T14:12:16.679Z,17.20
2023-05-01T14:15:27.439Z,17.21
2023-05-01T14:18:46.767Z,17.21
2023-05-01T14:21:47.181Z,17.21
2023-05-01T14:25:17.801Z,17.18
2023-05-01T14:28:29.101Z,17.14
2023-05-01T14:31:51.660Z,17.13
2023-05-01T14:35:13.908Z,17.16
2023-05-01T14:38:25.690Z,17.17
2023-05-01T14:41:38.277Z,17.15
2023-05-01T14:44:49.758Z,17.14
2023-05-01T14:48:02.055Z,17.12
2023-05-01T14:51:14.927Z,17.10
2023-05-01T14:54:43.048Z,17.11
2023-05-01T14:57:55.610Z,17.14
2023-05-01T15:01:07.527Z,17.13
2023-05-01T15:04:18.858Z,17.12
2023-05-01T15:07:30.806Z,17.12
2023-05-01T15:10:42.868Z,17.14
2023-05-01T15:14:02.249Z,17.14
2023-05-01T15:17:01.278Z,17.16
2023-05-01T15:20:12.133Z,17.17
2023-05-01T15:23:25.932Z,17.18
2023-05-01T15:26:38.489Z,17.20
2023-05-01T15:29:58.840Z,17.21
2023-05-01T15:33:19.344Z,17.19
2023-05-01T15:36:31.757Z,17.17
2023-05-01T15:39:44.979Z,17.15
2023-05-01T15:43:05.522Z,17.15
2023-05-01T15:46:18.216Z,17.13
2023-05-01T15:49:33.609Z,17.11
2023-05-01T15:52:54.022Z,17.08
2023-05-01T15:56:07.587Z,17.07
2023-05-01T15:59:19.325Z,17.03
2023-05-01T16:02:31.782Z,16.98
2023-05-01T16:05:43.555Z,16.91
2023-05-01T16:08:55.575Z,16.84
2023-05-01T16:12:16.649Z,16.78
2023-05-01T16:15:30.585Z,16.72
2023-05-01T16:18:35.275Z,16.67
2023-05-01T16:21:51.988Z,16.64
2023-05-01T16:25:12.193Z,16.63
2023-05-01T16:28:24.034Z,16.63
2023-05-01T16:31:42.564Z,16.63
2023-05-01T16:34:50.361Z,16.64
2023-05-01T16:38:09.961Z,16.64
2023-05-01T16:41:20.839Z,16.64
2023-05-01T16:44:31.614Z,16.62
2023-05-01T16:47:42.497Z,16.61
2023-05-01T16:50:53.394Z,16.58
2023-05-01T16:54:05.714Z,16.54
2023-05-01T16:57:17.861Z,16.50
2023-05-01T17:00:30.725Z,16.47
2023-05-01T17:03:43.649Z,16.44
2023-05-01T17:07:04.107Z,16.41
2023-05-01T17:10:18.058Z,16.38
2023-05-01T17:13:30.033Z,16.35
2023-05-01T17:16:42.603Z,16.31
2023-05-01T17:20:10.414Z,16.25
2023-05-01T17:23:21.444Z,16.18
2023-05-01T17:26:33.059Z,16.11
2023-05-01T17:29:46.295Z,16.03
2023-05-01T17:32:53.959Z,15.96
2023-05-01T17:36:06.266Z,15.88
2023-05-01T17:39:11.813Z,15.79
2023-05-01T17:42:23.389Z,15.70
2023-05-01T17:45:34.547Z,15.60
2023-05-01T17:48:45.638Z,15.50
2023-05-01T17:52:13.265Z,15.41
2023-05-01T17:55:25.401Z,15.31
2023-05-01T17:58:39.424Z,15.21
2023-05-01T18:01:59.177Z,15.12
2023-05-01T18:05:10.581Z,15.02
2023-05-01T18:08:30.706Z,14.93
2023-05-01T18:11:43.672Z,14.85
2023-05-01T18:14:55.938Z,14.77
2023-05-01T18:18:09.677Z,14.70
2023-05-01T18:21:37.285Z,14.65
2023-05-01T18:24:41.646Z,14.58
2023-05-01T18:27:54.084Z,14.51
2023-05-01T18:31:14.678Z,14.46
2023-05-01T18:34:35.206Z,14.39
2023-05-01T18:37:48.682Z,14.32
2023-05-01T18:41:15.258Z,14.25
2023-05-01T18:44:27.848Z,14.19
2023-05-01T18:47:39.460Z,14.14
2023-05-01T18:51:08.375Z,14.07
2023-05-01T18:54:20.353Z,14.00
2023-05-01T18:57:31.947Z,13.94
2023-05-01T19:00:44.236Z,13.89
2023-05-01T19:04:00.573Z,13.83
2023-05-01T19:07:14.477Z,13.78
2023-05-01T19:10:25.780Z,13.72
2023-05-01T19:13:53.554Z,13.66
2023-05-01T19:17:04.422Z,13.61
2023-05-01T19:20:15.457Z,13.55
2023-05-01T19:23:26.669Z,13.49
2023-05-01T19:26:45.807Z,13.41
2023-05-01T19:30:06.245Z,13.30
2023-05-01T19:33:20.123Z,13.11
2023-05-01T19:36:33.196Z,12.94
2023-05-01T19:39:46.055Z,12.71
2023-05-01T19:43:13.637Z,12.53
2023-05-01T19:46:24.809Z,12.32
2023-05-01T19:49:35.693Z,12.14
2023-05-01T19:52:48.126Z,11.97
2023-05-01T19:55:59.335Z,11.81
2023-05-01T19:59:10.520Z,11.63
2023-05-01T20:02:31.176Z,11.46
2023-05-01T20:05:51.126Z,11.29
2023-05-01T20:08:51.492Z,11.13
2023-05-01T20:12:02.869Z,10.98
2023-05-01T20:15:14.657Z,10.85
2023-05-01T20:18:26.733Z,10.71
2023-05-01T20:21:39.832Z,10.55
2023-05-01T20:24:51.781Z,10.42
2023-05-01T20:28:10.923Z,10.32
2023-05-01T20:31:24.121Z,10.22
2023-05-01T20:34:37.073Z,10.10
2023-05-01T20:37:50.388Z,10.02
2023-05-01T20:41:10.078Z,9.95
2023-05-01T20:44:17.255Z,9.87
2023-05-01T20:47:29.648Z,9.78
2023-05-01T20:50:48.950Z,9.69
2023-05-01T20:54:02.040Z,9.61
2023-05-01T20:57:15.773Z,9.54
2023-05-01T21:00:29.858Z,9.47
2023-05-01T21:03:41.601Z,9.38
2023-05-01T21:06:52.773Z,9.30
2023-05-01T21:10:15.073Z,9.24
2023-05-01T21:13:25.924Z,9.17
2023-05-01T21:16:37.905Z,9.13
2023-05-01T21:19:58.719Z,9.03
2023-05-01T21:23:11.068Z,8.96
2023-05-01T21:26:22.370Z,8.87
2023-05-01T21:29:40.164Z,8.77
2023-05-01T21:32:58.450Z,8.69
2023-05-01T21:36:12.900Z,8.61
2023-05-01T21:39:26.752Z,8.55
2023-05-01T21:42:45.877Z,8.45
2023-05-01T21:45:59.796Z,8.37
2023-05-01T21:49:19.072Z,8.31
2023-05-01T21:52:38.291Z,8.24
2023-05-01T21:55:50.332Z,8.14
2023-05-01T21:59:01.218Z,8.06
2023-05-01T22:02:03.264Z,8.00
2023-05-01T22:05:23.495Z,7.94
2023-05-01T22:08:23.902Z,7.90
2023-05-01T22:11:43.305Z,7.86
2023-05-01T22:14:54.481Z,7.81
2023-05-01T22:18:12.336Z,7.76
2023-05-01T22:21:20.220Z,7.72
2023-05-01T22:24:48.687Z,7.67
2023-05-01T22:28:00.967Z,7.61
2023-05-01T22:30:59.959Z,7.54
2023-05-01T22:34:09.260Z,7.49
2023-05-01T22:37:29.490Z,7.41
2023-05-01T22:40:50.292Z,7.35
2023-05-01T22:44:01.385Z,7.31
2023-05-01T22:46:48.869Z,7.30
2023-05-01T22:50:01.666Z,7.28
2023-05-01T22:53:21.243Z,7.24
2023-05-01T22:56:46.296Z,7.13
2023-05-01T22:59:58.397Z,7.01
2023-05-01T23:03:26.281Z,6.93
2023-05-01T23:06:37.514Z,6.85
2023-05-01T23:09:56.898Z,6.79
2023-05-01T23:13:11.708Z,6.73
2023-05-01T23:16:22.609Z,6.68
2023-05-01T23:19:41.915Z,6.61
2023-05-01T23:23:08.490Z,6.53
2023-05-01T23:26:19.757Z,6.43
2023-05-01T23:29:47.400Z,6.37
2023-05-01T23:32:58.783Z,6.31
2023-05-01T23:36:20.021Z,6.25
2023-05-01T23:43:06.172Z,6.13
2023-05-01T23:46:18.965Z,6.07
2023-05-01T23:49:38.233Z,6.02
2023-05-01T23:52:50.031Z,5.97
2023-05-01T23:56:03.542Z,5.94
2023-05-01T23:59:15.337Z,5.92
